May Valley, Colorado
Current Conditions -  °F | °C
As of 6:53 AM on Sunday 25 Jan 2015 (Local Time) from KLAA Reporting Station
Clear Clear  
Wind Chill: 26°   Ceiling: Unl
Heat Index: 32°   Visibility: 10mi
Dew Point: 26°   Wind: 7mph
Humidity: 79%   Direction: 280°W
Pressure: 30.16"   Gusts: NA
Location:  37.885°N, 102.667°W
Report Text: KLAA 251353Z AUTO 28006KT 10SM CLR 00/M03 A3016 RMK AO2 SLP223 T00001033
Loading
Personal Weather Stations






























Interactive Weather Map New forecast layout! Learn more

10-Day Weather Forecast

Advertisements
Track Severe Weather on mobile